Avoca, PA

10:52 PM EDT on September 02, 2014 (GMT -0400)
Exeter, PA | Change Station
CLOSE
Current Station
Personal Weather Station
Location: Exeter, PA
Elevation: 558 ft
Nearby Weather Stations

Elev 558 ft 41.33 °N, 75.83 °W | Updated 12 minutes ago

Overcast
Overcast
71.2 °F
Feels Like 71.2 °F
N
0.0
Wind Variable Wind from WNW

Today
High -- | Low -- °F
--% Chance of Precip.
Yesterday
High -- | Low -- °F
Precip. -- in
6:30 AM 7:34 PM
First Quarter, 57% visible
Pressure 29.88 in
Visibility 9.0 miles
Clouds Few 700 ft
Mostly Cloudy 1700 ft
Overcast 2600 ft
Dew Point 70 °F
Humidity 95%
Rainfall 0.02 in
Snow Depth Not available.
UV 0 out of 12
Pollen 9.00 out of 12
Air Quality Not available.
Flu Activity Not available.
SPECI KAVP 030208Z 31007KT 9SM FEW007 BKN017 OVC026 23/21 A2988

More Conditions Fewer Conditions

Pressure 29.88 in
Visibility 9.0 miles
Clouds Few 700 ft
Mostly Cloudy 1700 ft
Overcast 2600 ft
Dew Point 70 °F
Humidity 95%
Rainfall 0.02 in
Snow Depth Not available.
UV 0 out of 12
Pollen 9.00 out of 12
Air Quality Not available.
Flu Activity Not available.
SPECI KAVP 030208Z 31007KT 9SM FEW007 BKN017 OVC026 23/21 A2988

More Conditions Fewer Conditions

10-Day Weather Forecast

Almanac

Astronomy

Sep. 02, 2014 Rise Set
Actual Time 6:30 AM EDT 7:34 PM EDT
Civil Twilight 6:02 AM EDT 8:02 PM EDT
Nautical Twilight 5:28 AM EDT 8:36 PM EDT
Astronomical Twilight 4:52 AM EDT 9:11 PM EDT
Moon 2:17 PM EDT (9/2) No Moon Set
Length of Visible Light 14h 00m
Length of Day
13h 03m
Tomorrow will be 2m 39s shorter.
First Quarter, 57% of the Moon is Illuminated
Today
First Quarter
Sep 8
Full
Sep 15
Last Quarter
Sep 24
New
Oct 1
First Quarter

Today's Extremes

State Highs State Lows

Community

WunderPhotos

Upload Photos

1,749,845 photos uploaded!

Nearby

Snow Depth

Station Depth Elevation
No new snow has been reported.

Earthquake Activity

City Distance Mag. Time & Date
No recent earthquake activity has been reported nearby.
Minimum magnitude displayed is 2.5.

Coastal Water Temperatures

Place Temperature
No Stations Reporting

Nearby Weather Stations